Osaka Car — 9V2190 — position and weather

sailwx.info

Track history (hours):
 
Tides and Currents Weather Stations Pressure Air Temp Water Temp Dewpoint Dewpoint Depression Visibility Wind Speed Wind Dir Waves Ship Positions

Osaka Car

Last reported at 2017-Sep-09 18:35 UTC. Time now 2017-Sep-22 08:36 UTC.
Position N 48°31' W 126°32'.
Warning: this ship's position is 12 days out of date.

Length 183 m; draft 8 m.

Type: Other ship. MMSI: 566997000.

Date/timePositionNaut miles runAvg speedWind from/ knotsBaromVisibWave heightAir tempDewpointWater temp
2017-Sep-09 18:35N 48°31' W 126°32'216.6
2017-Sep-09 18:29N 48°31' W 126°30'816.2
2017-Sep-09 18:00N 48°31' W 126°18'816.3
2017-Sep-09 17:30N 48°31' W 126°05'917.3
2017-Sep-09 17:00N 48°31' W 125°53'918.4
2017-Sep-09 16:30N 48°31' W 125°39'917.8
2017-Sep-09 16:01N 48°31' W 125°25'917.2
2017-Sep-09 15:30N 48°31' W 125°12'917.7
2017-Sep-09 15:00N 48°31' W 124°59'918.5
2017-Sep-09 14:30N 48°30' W 124°45'1018.4
2017-Sep-09 13:59N 48°27' W 124°31'917.8
2017-Sep-09 13:30N 48°24' W 124°19'917.1
2017-Sep-09 13:01N 48°21' W 124°08'917.0
2017-Sep-09 12:30N 48°17' W 123°56'816.6
2017-Sep-09 12:00N 48°16' W 123°43'815.8
2017-Sep-09 11:30N 48°16' W 123°32'815.5
2017-Sep-09 11:00N 48°22' W 123°25'5 9.5
2017-Sep-09 10:30N 48°23' W 123°18'510.1
2017-Sep-09 10:00N 48°26' W 123°12'611.7
2017-Sep-09 09:30N 48°32' W 123°13'611.1
2017-Sep-09 09:00N 48°37' W 123°14'612.6
2017-Sep-09 08:31N 48°43' W 123°11'917.9
2017-Sep-09 08:01N 48°49' W 123°00'918.5
2017-Sep-09 07:31N 48°55' W 123°11'918.7
2017-Sep-09 07:00N 49°02' W 123°21'511.0
2017-Sep-09 06:30N 49°07' W 123°17'612.1
2017-Sep-09 06:00N 49°06' W 123°08'612.2
2017-Sep-09 05:30N 49°09' W 122°60'3 6.1
2017-Sep-09 04:59N 49°11' W 122°55'0 0.0
2017-Sep-09 04:29N 49°11' W 122°55'0 0.0
2017-Sep-09 03:59N 49°11' W 122°55'0 0.0
2017-Sep-09 03:29N 49°11' W 122°55'0 0.0
2017-Sep-09 02:59N 49°11' W 122°55'0 0.0
2017-Sep-09 02:29N 49°11' W 122°55'0 0.0
2017-Sep-09 01:59N 49°11' W 122°55'0 0.0
2017-Sep-09 01:29N 49°11' W 122°55'0 0.0
2017-Sep-09 00:59N 49°11' W 122°55'0 0.0
2017-Sep-09 00:29N 49°11' W 122°55'0 0.0
2017-Sep-08 23:59N 49°11' W 122°55'0 0.0
2017-Sep-08 23:30N 49°11' W 122°55'2 3.6
2017-Sep-08 23:00N 49°09' W 122°57'510.2
2017-Sep-08 22:30N 49°08' W 123°04'510.4
2017-Sep-08 22:00N 49°07' W 123°12'5 9.5
2017-Sep-08 21:30N 49°06' W 123°19'3 6.1
2017-Sep-08 21:00N 49°03' W 123°19'714.8
2017-Sep-08 20:30N 48°58' W 123°11'917.3
2017-Sep-08 20:00N 48°51' W 123°02'713.3
2017-Sep-08 19:30N 48°45' W 123°05'613.1
2017-Sep-08 19:00N 48°42' W 123°13'510.0
2017-Sep-08 18:31N 48°37' W 123°13'4 8.4
2017-Sep-08 18:00N 48°33' W 123°12'4 9.0
2017-Sep-08 17:30N 48°29' W 123°10'5 9.1
2017-Sep-08 17:00N 48°24' W 123°12'510.4
2017-Sep-08 16:31N 48°22' W 123°19'2 4.2
2017-Sep-08 16:00N 48°21' W 123°22'1 1.3
2017-Sep-08 15:28N 48°21' W 123°21'0 0.0
2017-Sep-08 14:58N 48°21' W 123°21'0 0.1
2017-Sep-08 14:28N 48°21' W 123°21'0 0.1
2017-Sep-08 13:58N 48°21' W 123°21'0 0.1
2017-Sep-08 13:28N 48°21' W 123°21'0 0.1
2017-Sep-08 12:58N 48°21' W 123°21'0 0.1
2017-Sep-08 12:28N 48°21' W 123°21'0 0.1
2017-Sep-08 11:55N 48°21' W 123°21'0 0.0
2017-Sep-08 11:28N 48°21' W 123°21'0 0.1
2017-Sep-08 10:58N 48°21' W 123°21'0 0.2
2017-Sep-08 10:28N 48°21' W 123°21'0 0.0
2017-Sep-08 09:58N 48°21' W 123°21'0 0.0
2017-Sep-08 09:28N 48°21' W 123°21'0 0.1
2017-Sep-08 08:58N 48°21' W 123°21'0 0.1
2017-Sep-08 08:25N 48°21' W 123°21'0 0.2
2017-Sep-08 07:58N 48°21' W 123°21'0 0.1
2017-Sep-08 07:22N 48°21' W 123°21'0 0.0
2017-Sep-08 06:10N 48°21' W 123°21'0 0.2
2017-Sep-08 05:55N 48°21' W 123°21'0 0.2
2017-Sep-08 05:28N 48°21' W 123°21'0 0.1
2017-Sep-08 04:52N 48°21' W 123°21'0 0.0
2017-Sep-08 04:25N 48°21' W 123°21'0 0.1
2017-Sep-08 03:58N 48°21' W 123°21'0 0.2
2017-Sep-08 03:28N 48°21' W 123°21'0 0.1
2017-Sep-08 02:55N 48°21' W 123°21'0 0.0
2017-Sep-08 02:19N 48°21' W 123°21'0 0.0
2017-Sep-08 01:46N 48°21' W 123°21'0 0.1
2017-Sep-08 01:28N 48°21' W 123°21'0 0.0
2017-Sep-08 00:58N 48°21' W 123°21'0 0.1
2017-Sep-08 00:28N 48°21' W 123°20'0 0.0
2017-Sep-07 23:58N 48°21' W 123°20'0 0.0
2017-Sep-07 23:22N 48°21' W 123°20'0 0.1
2017-Sep-07 22:58N 48°21' W 123°21'0 0.1
2017-Sep-07 22:28N 48°21' W 123°21'0 0.1
2017-Sep-07 21:58N 48°21' W 123°21'0 0.1
2017-Sep-07 21:28N 48°21' W 123°21'0 0.0
2017-Sep-07 20:58N 48°21' W 123°21'0 0.1
2017-Sep-07 20:28N 48°21' W 123°21'0 0.1
2017-Sep-07 19:58N 48°21' W 123°21'0 0.1
2017-Sep-07 19:28N 48°21' W 123°21'0 0.0
2017-Sep-07 18:58N 48°21' W 123°21'0 0.0
2017-Sep-07 18:28N 48°21' W 123°21'0 0.0
2017-Sep-07 17:58N 48°21' W 123°21'0 0.0
2017-Sep-07 17:28N 48°21' W 123°21'0 0.0
2017-Sep-07 16:58N 48°21' W 123°21'0 0.0
2017-Sep-07 16:28N 48°21' W 123°21'0 0.0
2017-Sep-07 15:58N 48°21' W 123°21'0 0.0
2017-Sep-07 15:28N 48°21' W 123°21'0 0.0
2017-Sep-07 14:58N 48°21' W 123°21'0 0.2
2017-Sep-07 14:28N 48°21' W 123°21'0 0.1
2017-Sep-07 13:58N 48°21' W 123°21'0 0.1
2017-Sep-07 13:28N 48°21' W 123°21'0 0.0
2017-Sep-07 12:58N 48°21' W 123°21'0 0.0
2017-Sep-07 12:28N 48°21' W 123°21'0 0.0
2017-Sep-07 11:58N 48°21' W 123°21'0 0.0
2017-Sep-07 11:28N 48°21' W 123°21'0 0.0
2017-Sep-07 10:58N 48°21' W 123°21'0 0.0
2017-Sep-07 10:28N 48°21' W 123°21'0 0.0
2017-Sep-07 09:58N 48°21' W 123°21'0 0.0
2017-Sep-07 09:28N 48°21' W 123°21'0 0.4
2017-Sep-07 09:00N 48°21' W 123°20'4 7.6
2017-Sep-07 08:31N 48°18' W 123°25'713.0
2017-Sep-07 08:00N 48°13' W 123°31'714.2
2017-Sep-07 07:30N 48°13' W 123°42'713.7
2017-Sep-07 07:00N 48°13' W 123°52'713.8
2017-Sep-07 06:30N 48°15' W 124°02'713.9
2017-Sep-07 06:00N 48°18' W 124°11'713.9
2017-Sep-07 05:30N 48°21' W 124°20'713.7
2017-Sep-07 05:00N 48°24' W 124°30'713.6
2017-Sep-07 04:30N 48°27' W 124°39'713.5
2017-Sep-07 04:00N 48°29' W 124°49'714.4
2017-Sep-07 03:30N 48°28' W 124°60'814.6
2017-Sep-07 02:59N 48°21' W 125°05'715.1
2017-Sep-07 02:30N 48°14' W 125°09'814.8
2017-Sep-07 01:59N 48°07' W 125°13'715.3
2017-Sep-07 01:30N 48°00' W 125°17'1314.6
2017-Sep-07 00:35N 47°47' W 125°20'115.0
2017-Sep-07 00:30N 47°46' W 125°19'714.8
2017-Sep-07 00:00N 47°39' W 125°16'714.7
2017-Sep-06 23:31N 47°32' W 125°14'815.2
2017-Sep-06 23:00N 47°24' W 125°14'815.3
2017-Sep-06 22:30N 47°16' W 125°12'715.0
2017-Sep-06 22:00N 47°09' W 125°10'714.8
2017-Sep-06 21:30N 47°02' W 125°07'714.9
2017-Sep-06 21:00N 46°55' W 125°02'1014.1
2017-Sep-06 20:20N 46°55' W 124°48'514.1
2017-Sep-06 20:00N 46°54' W 124°42'714.3
2017-Sep-06 19:30N 46°54' W 124°31'714.2
2017-Sep-06 19:00N 46°53' W 124°21'611.2
2017-Sep-06 18:30N 46°54' W 124°13'3 7.0
2017-Sep-06 18:00N 46°55' W 124°08'5 7.9
2017-Sep-06 17:25N 46°56' W 124°01'5 0.2
2017-Sep-05 19:22N 46°58' W 123°54'3 8.1
2017-Sep-05 19:00N 46°58' W 123°59'510.0
2017-Sep-05 18:30N 46°55' W 124°05'612.2
2017-Sep-05 18:00N 46°54' W 124°14'4 8.8
2017-Sep-05 17:30N 46°50' W 124°18'713.1
2017-Sep-05 17:01N 46°47' W 124°26'3 6.9
2017-Sep-05 16:31N 46°45' W 124°30'3 6.5
2017-Sep-05 16:00N 46°41' W 124°30'815.1
2017-Sep-05 15:30N 46°35' W 124°35'816.1
2017-Sep-05 15:01N 46°27' W 124°31'816.2
2017-Sep-05 14:30N 46°20' W 124°27'816.0
2017-Sep-05 14:01N 46°12' W 124°23'815.9
2017-Sep-05 13:31N 46°04' W 124°23'816.2
2017-Sep-05 13:01N 45°56' W 124°23'816.4
2017-Sep-05 12:30N 45°48' W 124°24'816.6
2017-Sep-05 12:01N 45°39' W 124°25'816.5
2017-Sep-05 11:31N 45°31' W 124°27'816.2
2017-Sep-05 11:01N 45°23' W 124°28'816.3
2017-Sep-05 10:30N 45°15' W 124°28'1216.0
2017-Sep-05 09:44N 45°03' W 124°27'616.3
2017-Sep-05 09:22N 44°57' W 124°27'616.3
2017-Sep-05 09:01N 44°51' W 124°27'816.2
2017-Sep-05 08:30N 44°43' W 124°28'816.5
2017-Sep-05 08:00N 44°35' W 124°27'816.3
2017-Sep-05 07:30N 44°27' W 124°26'816.4
2017-Sep-05 07:00N 44°18' W 124°26'816.4
2017-Sep-05 06:31N 44°10' W 124°26'3015.8
2017-Sep-05 04:35N 43°40' W 124°32'315.7
2017-Sep-05 04:24N 43°37' W 124°33'615.4
2017-Sep-05 04:00N 43°31' W 124°35'1921.1
2017-Sep-05 03:05N 43°13' W 124°43'0 0.3
2017-Sep-05 02:44N 43°13' W 124°43'1215.0
2017-Sep-05 01:56N 43°01' W 124°47'23515.0
2017-Sep-04 10:16N 39°08' W 124°05'516.1
2017-Sep-04 09:59N 39°04' W 124°04'817.1
2017-Sep-04 09:31N 38°56' W 124°02'816.8
2017-Sep-04 09:00N 38°48' W 123°58'816.7
2017-Sep-04 08:30N 38°42' W 123°50'816.3
2017-Sep-04 08:00N 38°36' W 123°44'815.4
2017-Sep-04 07:30N 38°29' W 123°40'815.5
2017-Sep-04 07:00N 38°21' W 123°39'815.6
2017-Sep-04 06:30N 38°13' W 123°38'815.9
2017-Sep-04 06:00N 38°05' W 123°37'816.0
2017-Sep-04 05:30N 37°57' W 123°36'816.0
2017-Sep-04 05:00N 37°49' W 123°35'816.0
2017-Sep-04 04:30N 37°42' W 123°30'816.8
2017-Sep-04 04:00N 37°37' W 123°22'816.8
2017-Sep-04 03:31N 37°32' W 123°13'816.6
2017-Sep-04 03:00N 37°26' W 123°07'816.7
2017-Sep-04 02:30N 37°20' W 122°60'816.8
2017-Sep-04 02:00N 37°14' W 122°53'816.3
2017-Sep-04 01:30N 37°08' W 122°45'816.1
2017-Sep-04 01:00N 37°02' W 122°38'815.6
2017-Sep-04 00:30N 36°57' W 122°31'816.1
2017-Sep-04 00:00N 36°51' W 122°24'815.9
2017-Sep-03 23:30N 36°44' W 122°19'816.6
2017-Sep-03 23:00N 36°36' W 122°16'816.5
2017-Sep-03 22:30N 36°28' W 122°14'816.1
2017-Sep-03 22:00N 36°21' W 122°11'6116.3
2017-Sep-03 18:17N 35°31' W 121°29'617.4
2017-Sep-03 17:56N 35°26' W 121°24'817.1
2017-Sep-03 17:28N 35°19' W 121°18'817.1
2017-Sep-03 17:00N 35°13' W 121°12'816.6
2017-Sep-03 16:31N 35°07' W 121°06'816.3
2017-Sep-03 16:00N 34°59' W 121°03'816.8
2017-Sep-03 15:31N 34°51' W 121°01'816.9
2017-Sep-03 15:01N 34°42' W 120°59'1716.6
2017-Sep-03 14:00N 34°26' W 120°54'816.7
2017-Sep-03 13:31N 34°18' W 120°52'916.5
2017-Sep-03 12:59N 34°09' W 120°50'816.8
2017-Sep-03 12:30N 34°02' W 120°47'816.1
2017-Sep-03 12:01N 33°55' W 120°41'816.2
2017-Sep-03 11:30N 33°49' W 120°36'816.1
2017-Sep-03 10:59N 33°42' W 120°30'816.2
2017-Sep-03 10:30N 33°36' W 120°24'916.6
2017-Sep-03 09:59N 33°29' W 120°17'817.0
2017-Sep-03 09:30N 33°23' W 120°11'817.0
2017-Sep-03 09:01N 33°16' W 120°05'917.0
2017-Sep-03 08:29N 33°09' W 119°59'817.1
2017-Sep-03 08:00N 33°05' W 119°50'816.8
2017-Sep-03 07:31N 32°60' W 119°42'816.7
2017-Sep-03 07:00N 32°55' W 119°34'916.9
2017-Sep-03 06:30N 32°50' W 119°25'816.6
2017-Sep-03 05:59N 32°46' W 119°17'816.6
2017-Sep-03 05:30N 32°41' W 119°09'816.6
2017-Sep-03 05:01N 32°37' W 119°01'815.9
2017-Sep-03 04:30N 32°35' W 118°52'816.7
2017-Sep-03 04:01N 32°35' W 118°42'816.8
2017-Sep-03 03:31N 32°35' W 118°32'816.7
2017-Sep-03 03:01N 32°35' W 118°22'816.9
2017-Sep-03 02:31N 32°36' W 118°12'816.9
2017-Sep-03 02:01N 32°36' W 118°02'816.7
2017-Sep-03 01:31N 32°36' W 117°52'816.8
2017-Sep-03 01:00N 32°36' W 117°42'817.0
2017-Sep-03 00:31N 32°37' W 117°32'816.2
2017-Sep-03 00:01N 32°37' W 117°22'714.8
2017-Sep-02 23:31N 32°38' W 117°14'5 9.0
2017-Sep-02 23:00N 32°42' W 117°14'4 7.2
2017-Sep-02 22:30N 32°42' W 117°10'3 5.8
2017-Sep-02 21:58N 32°39' W 117°07'0 0.0
2017-Sep-02 21:28N 32°39' W 117°07'0 0.0
2017-Sep-02 20:58N 32°39' W 117°07'0 0.0
2017-Sep-02 20:28N 32°39' W 117°07'0 0.0
2017-Sep-02 19:52N 32°39' W 117°07'0 0.0
2017-Sep-02 19:25N 32°39' W 117°07'0 0.0
2017-Sep-02 18:52N 32°39' W 117°07'0 0.0
2017-Sep-02 18:28N 32°39' W 117°07'0 0.0
2017-Sep-02 17:58N 32°39' W 117°07'0 0.0
2017-Sep-02 17:28N 32°39' W 117°07'0 0.0
2017-Sep-02 16:58N 32°39' W 117°07'0 0.0
2017-Sep-02 16:28N 32°39' W 117°07'0 0.0
2017-Sep-02 15:58N 32°39' W 117°07'0 0.0
2017-Sep-02 15:25N 32°39' W 117°07'0 0.0
2017-Sep-02 14:55N 32°39' W 117°07'0 0.0
2017-Sep-02 14:28N 32°39' W 117°07'0 0.0
2017-Sep-02 13:58N 32°39' W 117°07'0 0.0
2017-Sep-02 13:28N 32°39' W 117°07'0 0.4
2017-Sep-02 13:01N 32°39' W 117°07'3 5.3
2017-Sep-02 12:30N 32°42' W 117°09'4 7.9
2017-Sep-02 12:01N 32°41' W 117°14'5 9.3
2017-Sep-02 11:31N 32°37' W 117°14'3 5.9
2017-Sep-02 11:00N 32°35' W 117°17'3 6.2
2017-Sep-02 10:31N 32°32' W 117°19'4 7.0
2017-Sep-02 10:00N 32°30' W 117°22'3 6.9
2017-Sep-02 09:30N 32°27' W 117°24'4 8.9
2017-Sep-02 09:01N 32°23' W 117°22'4 7.9
2017-Sep-02 08:31N 32°20' W 117°19'3 6.8
2017-Sep-02 08:01N 32°18' W 117°16'0 0.9
2017-Sep-02 07:31N 32°17' W 117°16'1 2.9
2017-Sep-02 07:01N 32°16' W 117°14'713.3
2017-Sep-02 06:31N 32°11' W 117°10'611.9
2017-Sep-02 06:01N 32°06' W 117°06'4 8.2
2017-Sep-02 05:30N 32°02' W 117°03'815.4
2017-Sep-02 05:00N 31°56' W 116°59'715.3
2017-Sep-02 04:30N 31°49' W 116°55'815.5
2017-Sep-02 04:01N 31°42' W 116°52'815.6
2017-Sep-02 03:30N 31°34' W 116°49'815.2
2017-Sep-02 03:00N 31°27' W 116°47'815.0
2017-Sep-02 02:30N 31°20' W 116°44'814.9
2017-Sep-02 02:00N 31°13' W 116°42'714.8
2017-Sep-02 01:30N 31°05' W 116°39'714.6
2017-Sep-02 01:00N 30°59' W 116°36'1714.1
2017-Sep-01 23:47N 30°43' W 116°27'118 4.8
2017-Aug-31 23:10N 28°55' W 115°32'0 1.6
2017-Aug-31 22:55N 28°55' W 115°33'3 1.6
2017-Aug-31 21:13N 28°58' W 115°34'11 1.4
2017-Aug-31 13:19N 29°07' W 115°40'2 1.5
2017-Aug-31 11:43N 29°09' W 115°41'0 1.6
2017-Aug-31 11:28N 29°09' W 115°41'1 1.6
2017-Aug-31 10:58N 29°10' W 115°42'1 1.6
2017-Aug-31 10:07N 29°11' W 115°42'0 1.0
2017-Aug-31 09:55N 29°11' W 115°42'2 3.7
2017-Aug-31 09:30N 29°10' W 115°42'8 9.6
2017-Aug-31 08:37N 29°01' W 115°42'214.6
2017-Aug-31 08:29N 28°59' W 115°42'2314.8
2017-Aug-31 06:57N 28°37' W 115°42'714.9
2017-Aug-31 06:30N 28°30' W 115°42'714.7
2017-Aug-31 06:00N 28°23' W 115°42'3014.0
2017-Aug-31 03:53N 27°57' W 115°25'614.9
2017-Aug-31 03:30N 27°53' W 115°21'2214.1
2017-Aug-31 01:56N 27°38' W 115°02'  
Track history (hours):
 
Tides and Currents Weather Stations Pressure Air Temp Water Temp Dewpoint Dewpoint Depression Visibility Wind Speed Wind Dir Waves Ship Positions

Osaka Car

Last reported at 2017-Sep-09 18:35 UTC. Time now 2017-Sep-22 08:36 UTC.
Position N 48°31' W 126°32'.
Warning: this ship's position is 12 days out of date.

Length 183 m; draft 8 m.

Type: Other ship. MMSI: 566997000.

Date/timePositionNaut miles runAvg speedWind from/ knotsBaromVisibWave heightAir tempDewpointWater temp
2017-Sep-09 18:35N 48°31' W 126°32'216.6
2017-Sep-09 18:29N 48°31' W 126°30'816.2
2017-Sep-09 18:00N 48°31' W 126°18'816.3
2017-Sep-09 17:30N 48°31' W 126°05'917.3
2017-Sep-09 17:00N 48°31' W 125°53'918.4
2017-Sep-09 16:30N 48°31' W 125°39'917.8
2017-Sep-09 16:01N 48°31' W 125°25'917.2
2017-Sep-09 15:30N 48°31' W 125°12'917.7
2017-Sep-09 15:00N 48°31' W 124°59'918.5
2017-Sep-09 14:30N 48°30' W 124°45'1018.4
2017-Sep-09 13:59N 48°27' W 124°31'917.8
2017-Sep-09 13:30N 48°24' W 124°19'917.1
2017-Sep-09 13:01N 48°21' W 124°08'917.0
2017-Sep-09 12:30N 48°17' W 123°56'816.6
2017-Sep-09 12:00N 48°16' W 123°43'815.8
2017-Sep-09 11:30N 48°16' W 123°32'815.5
2017-Sep-09 11:00N 48°22' W 123°25'5 9.5
2017-Sep-09 10:30N 48°23' W 123°18'510.1
2017-Sep-09 10:00N 48°26' W 123°12'611.7
2017-Sep-09 09:30N 48°32' W 123°13'611.1
2017-Sep-09 09:00N 48°37' W 123°14'612.6
2017-Sep-09 08:31N 48°43' W 123°11'917.9
2017-Sep-09 08:01N 48°49' W 123°00'918.5
2017-Sep-09 07:31N 48°55' W 123°11'918.7
2017-Sep-09 07:00N 49°02' W 123°21'511.0
2017-Sep-09 06:30N 49°07' W 123°17'612.1
2017-Sep-09 06:00N 49°06' W 123°08'612.2
2017-Sep-09 05:30N 49°09' W 122°60'3 6.1
2017-Sep-09 04:59N 49°11' W 122°55'0 0.0
2017-Sep-09 04:29N 49°11' W 122°55'0 0.0
2017-Sep-09 03:59N 49°11' W 122°55'0 0.0
2017-Sep-09 03:29N 49°11' W 122°55'0 0.0
2017-Sep-09 02:59N 49°11' W 122°55'0 0.0
2017-Sep-09 02:29N 49°11' W 122°55'0 0.0
2017-Sep-09 01:59N 49°11' W 122°55'0 0.0
2017-Sep-09 01:29N 49°11' W 122°55'0 0.0
2017-Sep-09 00:59N 49°11' W 122°55'0 0.0
2017-Sep-09 00:29N 49°11' W 122°55'0 0.0
2017-Sep-08 23:59N 49°11' W 122°55'0 0.0
2017-Sep-08 23:30N 49°11' W 122°55'2 3.6
2017-Sep-08 23:00N 49°09' W 122°57'510.2
2017-Sep-08 22:30N 49°08' W 123°04'510.4
2017-Sep-08 22:00N 49°07' W 123°12'5 9.5
2017-Sep-08 21:30N 49°06' W 123°19'3 6.1
2017-Sep-08 21:00N 49°03' W 123°19'714.8
2017-Sep-08 20:30N 48°58' W 123°11'917.3
2017-Sep-08 20:00N 48°51' W 123°02'713.3
2017-Sep-08 19:30N 48°45' W 123°05'613.1
2017-Sep-08 19:00N 48°42' W 123°13'510.0
2017-Sep-08 18:31N 48°37' W 123°13'4 8.4
2017-Sep-08 18:00N 48°33' W 123°12'4 9.0
2017-Sep-08 17:30N 48°29' W 123°10'5 9.1
2017-Sep-08 17:00N 48°24' W 123°12'510.4
2017-Sep-08 16:31N 48°22' W 123°19'2 4.2
2017-Sep-08 16:00N 48°21' W 123°22'1 1.3
2017-Sep-08 15:28N 48°21' W 123°21'0 0.0
2017-Sep-08 14:58N 48°21' W 123°21'0 0.1
2017-Sep-08 14:28N 48°21' W 123°21'0 0.1
2017-Sep-08 13:58N 48°21' W 123°21'0 0.1
2017-Sep-08 13:28N 48°21' W 123°21'0 0.1
2017-Sep-08 12:58N 48°21' W 123°21'0 0.1
2017-Sep-08 12:28N 48°21' W 123°21'0 0.1
2017-Sep-08 11:55N 48°21' W 123°21'0 0.0
2017-Sep-08 11:28N 48°21' W 123°21'0 0.1
2017-Sep-08 10:58N 48°21' W 123°21'0 0.2
2017-Sep-08 10:28N 48°21' W 123°21'0 0.0
2017-Sep-08 09:58N 48°21' W 123°21'0 0.0
2017-Sep-08 09:28N 48°21' W 123°21'0 0.1
2017-Sep-08 08:58N 48°21' W 123°21'0 0.1
2017-Sep-08 08:25N 48°21' W 123°21'0 0.2
2017-Sep-08 07:58N 48°21' W 123°21'0 0.1
2017-Sep-08 07:22N 48°21' W 123°21'0 0.0
2017-Sep-08 06:10N 48°21' W 123°21'0 0.2
2017-Sep-08 05:55N 48°21' W 123°21'0 0.2
2017-Sep-08 05:28N 48°21' W 123°21'0 0.1
2017-Sep-08 04:52N 48°21' W 123°21'0 0.0
2017-Sep-08 04:25N 48°21' W 123°21'0 0.1
2017-Sep-08 03:58N 48°21' W 123°21'0 0.2
2017-Sep-08 03:28N 48°21' W 123°21'0 0.1
2017-Sep-08 02:55N 48°21' W 123°21'0 0.0
2017-Sep-08 02:19N 48°21' W 123°21'0 0.0
2017-Sep-08 01:46N 48°21' W 123°21'0 0.1
2017-Sep-08 01:28N 48°21' W 123°21'0 0.0
2017-Sep-08 00:58N 48°21' W 123°21'0 0.1
2017-Sep-08 00:28N 48°21' W 123°20'0 0.0
2017-Sep-07 23:58N 48°21' W 123°20'0 0.0
2017-Sep-07 23:22N 48°21' W 123°20'0 0.1
2017-Sep-07 22:58N 48°21' W 123°21'0 0.1
2017-Sep-07 22:28N 48°21' W 123°21'0 0.1
2017-Sep-07 21:58N 48°21' W 123°21'0 0.1
2017-Sep-07 21:28N 48°21' W 123°21'0 0.0
2017-Sep-07 20:58N 48°21' W 123°21'0 0.1
2017-Sep-07 20:28N 48°21' W 123°21'0 0.1
2017-Sep-07 19:58N 48°21' W 123°21'0 0.1
2017-Sep-07 19:28N 48°21' W 123°21'0 0.0
2017-Sep-07 18:58N 48°21' W 123°21'0 0.0
2017-Sep-07 18:28N 48°21' W 123°21'0 0.0
2017-Sep-07 17:58N 48°21' W 123°21'0 0.0
2017-Sep-07 17:28N 48°21' W 123°21'0 0.0
2017-Sep-07 16:58N 48°21' W 123°21'0 0.0
2017-Sep-07 16:28N 48°21' W 123°21'0 0.0
2017-Sep-07 15:58N 48°21' W 123°21'0 0.0
2017-Sep-07 15:28N 48°21' W 123°21'0 0.0
2017-Sep-07 14:58N 48°21' W 123°21'0 0.2
2017-Sep-07 14:28N 48°21' W 123°21'0 0.1
2017-Sep-07 13:58N 48°21' W 123°21'0 0.1
2017-Sep-07 13:28N 48°21' W 123°21'0 0.0
2017-Sep-07 12:58N 48°21' W 123°21'0 0.0
2017-Sep-07 12:28N 48°21' W 123°21'0 0.0
2017-Sep-07 11:58N 48°21' W 123°21'0 0.0
2017-Sep-07 11:28N 48°21' W 123°21'0 0.0
2017-Sep-07 10:58N 48°21' W 123°21'0 0.0
2017-Sep-07 10:28N 48°21' W 123°21'0 0.0
2017-Sep-07 09:58N 48°21' W 123°21'0 0.0
2017-Sep-07 09:28N 48°21' W 123°21'0 0.4
2017-Sep-07 09:00N 48°21' W 123°20'4 7.6
2017-Sep-07 08:31N 48°18' W 123°25'713.0
2017-Sep-07 08:00N 48°13' W 123°31'714.2
2017-Sep-07 07:30N 48°13' W 123°42'713.7
2017-Sep-07 07:00N 48°13' W 123°52'713.8
2017-Sep-07 06:30N 48°15' W 124°02'713.9
2017-Sep-07 06:00N 48°18' W 124°11'713.9
2017-Sep-07 05:30N 48°21' W 124°20'713.7
2017-Sep-07 05:00N 48°24' W 124°30'713.6
2017-Sep-07 04:30N 48°27' W 124°39'713.5
2017-Sep-07 04:00N 48°29' W 124°49'714.4
2017-Sep-07 03:30N 48°28' W 124°60'814.6
2017-Sep-07 02:59N 48°21' W 125°05'715.1
2017-Sep-07 02:30N 48°14' W 125°09'814.8
2017-Sep-07 01:59N 48°07' W 125°13'715.3
2017-Sep-07 01:30N 48°00' W 125°17'1314.6
2017-Sep-07 00:35N 47°47' W 125°20'115.0
2017-Sep-07 00:30N 47°46' W 125°19'714.8
2017-Sep-07 00:00N 47°39' W 125°16'714.7
2017-Sep-06 23:31N 47°32' W 125°14'815.2
2017-Sep-06 23:00N 47°24' W 125°14'815.3
2017-Sep-06 22:30N 47°16' W 125°12'715.0
2017-Sep-06 22:00N 47°09' W 125°10'714.8
2017-Sep-06 21:30N 47°02' W 125°07'714.9
2017-Sep-06 21:00N 46°55' W 125°02'1014.1
2017-Sep-06 20:20N 46°55' W 124°48'514.1
2017-Sep-06 20:00N 46°54' W 124°42'714.3
2017-Sep-06 19:30N 46°54' W 124°31'714.2
2017-Sep-06 19:00N 46°53' W 124°21'611.2
2017-Sep-06 18:30N 46°54' W 124°13'3 7.0
2017-Sep-06 18:00N 46°55' W 124°08'5 7.9
2017-Sep-06 17:25N 46°56' W 124°01'5 0.2
2017-Sep-05 19:22N 46°58' W 123°54'3 8.1
2017-Sep-05 19:00N 46°58' W 123°59'510.0
2017-Sep-05 18:30N 46°55' W 124°05'612.2
2017-Sep-05 18:00N 46°54' W 124°14'4 8.8
2017-Sep-05 17:30N 46°50' W 124°18'713.1
2017-Sep-05 17:01N 46°47' W 124°26'3 6.9
2017-Sep-05 16:31N 46°45' W 124°30'3 6.5
2017-Sep-05 16:00N 46°41' W 124°30'815.1
2017-Sep-05 15:30N 46°35' W 124°35'816.1
2017-Sep-05 15:01N 46°27' W 124°31'816.2
2017-Sep-05 14:30N 46°20' W 124°27'816.0
2017-Sep-05 14:01N 46°12' W 124°23'815.9
2017-Sep-05 13:31N 46°04' W 124°23'816.2
2017-Sep-05 13:01N 45°56' W 124°23'816.4
2017-Sep-05 12:30N 45°48' W 124°24'816.6
2017-Sep-05 12:01N 45°39' W 124°25'816.5
2017-Sep-05 11:31N 45°31' W 124°27'816.2
2017-Sep-05 11:01N 45°23' W 124°28'816.3
2017-Sep-05 10:30N 45°15' W 124°28'1216.0
2017-Sep-05 09:44N 45°03' W 124°27'616.3
2017-Sep-05 09:22N 44°57' W 124°27'616.3
2017-Sep-05 09:01N 44°51' W 124°27'816.2
2017-Sep-05 08:30N 44°43' W 124°28'816.5
2017-Sep-05 08:00N 44°35' W 124°27'816.3
2017-Sep-05 07:30N 44°27' W 124°26'816.4
2017-Sep-05 07:00N 44°18' W 124°26'816.4
2017-Sep-05 06:31N 44°10' W 124°26'3015.8
2017-Sep-05 04:35N 43°40' W 124°32'315.7
2017-Sep-05 04:24N 43°37' W 124°33'615.4
2017-Sep-05 04:00N 43°31' W 124°35'1921.1
2017-Sep-05 03:05N 43°13' W 124°43'0 0.3
2017-Sep-05 02:44N 43°13' W 124°43'1215.0
2017-Sep-05 01:56N 43°01' W 124°47'23515.0
2017-Sep-04 10:16N 39°08' W 124°05'516.1
2017-Sep-04 09:59N 39°04' W 124°04'817.1
2017-Sep-04 09:31N 38°56' W 124°02'816.8
2017-Sep-04 09:00N 38°48' W 123°58'816.7
2017-Sep-04 08:30N 38°42' W 123°50'816.3
2017-Sep-04 08:00N 38°36' W 123°44'815.4
2017-Sep-04 07:30N 38°29' W 123°40'815.5
2017-Sep-04 07:00N 38°21' W 123°39'815.6
2017-Sep-04 06:30N 38°13' W 123°38'815.9
2017-Sep-04 06:00N 38°05' W 123°37'816.0
2017-Sep-04 05:30N 37°57' W 123°36'816.0
2017-Sep-04 05:00N 37°49' W 123°35'816.0
2017-Sep-04 04:30N 37°42' W 123°30'816.8
2017-Sep-04 04:00N 37°37' W 123°22'816.8
2017-Sep-04 03:31N 37°32' W 123°13'816.6
2017-Sep-04 03:00N 37°26' W 123°07'816.7
2017-Sep-04 02:30N 37°20' W 122°60'816.8
2017-Sep-04 02:00N 37°14' W 122°53'816.3
2017-Sep-04 01:30N 37°08' W 122°45'816.1
2017-Sep-04 01:00N 37°02' W 122°38'815.6
2017-Sep-04 00:30N 36°57' W 122°31'816.1
2017-Sep-04 00:00N 36°51' W 122°24'815.9
2017-Sep-03 23:30N 36°44' W 122°19'816.6
2017-Sep-03 23:00N 36°36' W 122°16'816.5
2017-Sep-03 22:30N 36°28' W 122°14'816.1
2017-Sep-03 22:00N 36°21' W 122°11'6116.3
2017-Sep-03 18:17N 35°31' W 121°29'617.4
2017-Sep-03 17:56N 35°26' W 121°24'817.1
2017-Sep-03 17:28N 35°19' W 121°18'817.1
2017-Sep-03 17:00N 35°13' W 121°12'816.6
2017-Sep-03 16:31N 35°07' W 121°06'816.3
2017-Sep-03 16:00N 34°59' W 121°03'816.8
2017-Sep-03 15:31N 34°51' W 121°01'816.9
2017-Sep-03 15:01N 34°42' W 120°59'1716.6
2017-Sep-03 14:00N 34°26' W 120°54'816.7
2017-Sep-03 13:31N 34°18' W 120°52'916.5
2017-Sep-03 12:59N 34°09' W 120°50'816.8
2017-Sep-03 12:30N 34°02' W 120°47'816.1
2017-Sep-03 12:01N 33°55' W 120°41'816.2
2017-Sep-03 11:30N 33°49' W 120°36'816.1
2017-Sep-03 10:59N 33°42' W 120°30'816.2
2017-Sep-03 10:30N 33°36' W 120°24'916.6
2017-Sep-03 09:59N 33°29' W 120°17'817.0
2017-Sep-03 09:30N 33°23' W 120°11'817.0
2017-Sep-03 09:01N 33°16' W 120°05'917.0
2017-Sep-03 08:29N 33°09' W 119°59'817.1
2017-Sep-03 08:00N 33°05' W 119°50'816.8
2017-Sep-03 07:31N 32°60' W 119°42'816.7
2017-Sep-03 07:00N 32°55' W 119°34'916.9
2017-Sep-03 06:30N 32°50' W 119°25'816.6
2017-Sep-03 05:59N 32°46' W 119°17'816.6
2017-Sep-03 05:30N 32°41' W 119°09'816.6
2017-Sep-03 05:01N 32°37' W 119°01'815.9
2017-Sep-03 04:30N 32°35' W 118°52'816.7
2017-Sep-03 04:01N 32°35' W 118°42'816.8
2017-Sep-03 03:31N 32°35' W 118°32'816.7
2017-Sep-03 03:01N 32°35' W 118°22'816.9
2017-Sep-03 02:31N 32°36' W 118°12'816.9
2017-Sep-03 02:01N 32°36' W 118°02'816.7
2017-Sep-03 01:31N 32°36' W 117°52'816.8
2017-Sep-03 01:00N 32°36' W 117°42'817.0
2017-Sep-03 00:31N 32°37' W 117°32'816.2
2017-Sep-03 00:01N 32°37' W 117°22'714.8
2017-Sep-02 23:31N 32°38' W 117°14'5 9.0
2017-Sep-02 23:00N 32°42' W 117°14'4 7.2
2017-Sep-02 22:30N 32°42' W 117°10'3 5.8
2017-Sep-02 21:58N 32°39' W 117°07'0 0.0
2017-Sep-02 21:28N 32°39' W 117°07'0 0.0
2017-Sep-02 20:58N 32°39' W 117°07'0 0.0
2017-Sep-02 20:28N 32°39' W 117°07'0 0.0
2017-Sep-02 19:52N 32°39' W 117°07'0 0.0
2017-Sep-02 19:25N 32°39' W 117°07'0 0.0
2017-Sep-02 18:52N 32°39' W 117°07'0 0.0
2017-Sep-02 18:28N 32°39' W 117°07'0 0.0
2017-Sep-02 17:58N 32°39' W 117°07'0 0.0
2017-Sep-02 17:28N 32°39' W 117°07'0 0.0
2017-Sep-02 16:58N 32°39' W 117°07'0 0.0
2017-Sep-02 16:28N 32°39' W 117°07'0 0.0
2017-Sep-02 15:58N 32°39' W 117°07'0 0.0
2017-Sep-02 15:25N 32°39' W 117°07'0 0.0
2017-Sep-02 14:55N 32°39' W 117°07'0 0.0
2017-Sep-02 14:28N 32°39' W 117°07'0 0.0
2017-Sep-02 13:58N 32°39' W 117°07'0 0.0
2017-Sep-02 13:28N 32°39' W 117°07'0 0.4
2017-Sep-02 13:01N 32°39' W 117°07'3 5.3
2017-Sep-02 12:30N 32°42' W 117°09'4 7.9
2017-Sep-02 12:01N 32°41' W 117°14'5 9.3
2017-Sep-02 11:31N 32°37' W 117°14'3 5.9
2017-Sep-02 11:00N 32°35' W 117°17'3 6.2
2017-Sep-02 10:31N 32°32' W 117°19'4 7.0
2017-Sep-02 10:00N 32°30' W 117°22'3 6.9
2017-Sep-02 09:30N 32°27' W 117°24'4 8.9
2017-Sep-02 09:01N 32°23' W 117°22'4 7.9
2017-Sep-02 08:31N 32°20' W 117°19'3 6.8
2017-Sep-02 08:01N 32°18' W 117°16'0 0.9
2017-Sep-02 07:31N 32°17' W 117°16'1 2.9
2017-Sep-02 07:01N 32°16' W 117°14'713.3
2017-Sep-02 06:31N 32°11' W 117°10'611.9
2017-Sep-02 06:01N 32°06' W 117°06'4 8.2
2017-Sep-02 05:30N 32°02' W 117°03'815.4
2017-Sep-02 05:00N 31°56' W 116°59'715.3
2017-Sep-02 04:30N 31°49' W 116°55'815.5
2017-Sep-02 04:01N 31°42' W 116°52'815.6
2017-Sep-02 03:30N 31°34' W 116°49'815.2
2017-Sep-02 03:00N 31°27' W 116°47'815.0
2017-Sep-02 02:30N 31°20' W 116°44'814.9
2017-Sep-02 02:00N 31°13' W 116°42'714.8
2017-Sep-02 01:30N 31°05' W 116°39'714.6
2017-Sep-02 01:00N 30°59' W 116°36'1714.1
2017-Sep-01 23:47N 30°43' W 116°27'118 4.8
2017-Aug-31 23:10N 28°55' W 115°32'0 1.6
2017-Aug-31 22:55N 28°55' W 115°33'3 1.6
2017-Aug-31 21:13N 28°58' W 115°34'11 1.4
2017-Aug-31 13:19N 29°07' W 115°40'2 1.5
2017-Aug-31 11:43N 29°09' W 115°41'0 1.6
2017-Aug-31 11:28N 29°09' W 115°41'1 1.6
2017-Aug-31 10:58N 29°10' W 115°42'1 1.6
2017-Aug-31 10:07N 29°11' W 115°42'0 1.0
2017-Aug-31 09:55N 29°11' W 115°42'2 3.7
2017-Aug-31 09:30N 29°10' W 115°42'8 9.6
2017-Aug-31 08:37N 29°01' W 115°42'214.6
2017-Aug-31 08:29N 28°59' W 115°42'2314.8
2017-Aug-31 06:57N 28°37' W 115°42'714.9
2017-Aug-31 06:30N 28°30' W 115°42'714.7
2017-Aug-31 06:00N 28°23' W 115°42'3014.0
2017-Aug-31 03:53N 27°57' W 115°25'614.9
2017-Aug-31 03:30N 27°53' W 115°21'2214.1
2017-Aug-31 01:56N 27°38' W 115°02'  

Dump ship's entire track history